sensor_id;sensor_type;location;lat;lon;timestamp;pressure;altitude;pressure_sealevel;temperature;humidity
50125;BME280;36023;48.670;6.184;2023-05-01T00:00:43;98933.28;;;19.00;42.11
50125;BME280;36023;48.670;6.184;2023-05-01T00:03:08;98941.16;;;19.00;42.06
50125;BME280;36023;48.670;6.184;2023-05-01T00:05:34;98934.19;;;18.99;41.93
50125;BME280;36023;48.670;6.184;2023-05-01T00:07:59;98925.47;;;18.98;41.98
50125;BME280;36023;48.670;6.184;2023-05-01T00:10:26;98923.69;;;18.99;41.93
50125;BME280;36023;48.670;6.184;2023-05-01T00:12:52;98918.44;;;18.99;41.78
50125;BME280;36023;48.670;6.184;2023-05-01T00:15:18;98913.28;;;18.97;41.92
50125;BME280;36023;48.670;6.184;2023-05-01T00:17:43;98915.81;;;18.99;41.85
50125;BME280;36023;48.670;6.184;2023-05-01T00:20:09;98914.97;;;18.98;41.84
50125;BME280;36023;48.670;6.184;2023-05-01T00:22:34;98901.00;;;18.98;41.85
50125;BME280;36023;48.670;6.184;2023-05-01T00:25:00;98899.22;;;18.98;41.93
50125;BME280;36023;48.670;6.184;2023-05-01T00:27:26;98898.41;;;18.98;41.70
50125;BME280;36023;48.670;6.184;2023-05-01T00:29:53;98894.09;;;18.97;41.66
50125;BME280;36023;48.670;6.184;2023-05-01T00:32:19;98887.16;;;18.96;41.71
50125;BME280;36023;48.670;6.184;2023-05-01T00:34:46;98888.00;;;18.96;41.66
50125;BME280;36023;48.670;6.184;2023-05-01T00:37:13;98881.91;;;18.96;41.68
50125;BME280;36023;48.670;6.184;2023-05-01T00:39:40;98886.31;;;18.95;41.67
50125;BME280;36023;48.670;6.184;2023-05-01T00:42:05;98886.31;;;18.95;41.75
50125;BME280;36023;48.670;6.184;2023-05-01T00:44:33;98886.41;;;18.93;41.61
50125;BME280;36023;48.670;6.184;2023-05-01T00:46:58;98880.22;;;18.95;41.71
50125;BME280;36023;48.670;6.184;2023-05-01T00:49:27;98881.16;;;18.93;41.48
50125;BME280;36023;48.670;6.184;2023-05-01T00:51:52;98879.47;;;18.92;41.57
50125;BME280;36023;48.670;6.184;2023-05-01T00:54:19;98872.44;;;18.93;41.53
50125;BME280;36023;48.670;6.184;2023-05-01T00:56:46;98873.38;;;18.92;41.63
50125;BME280;36023;48.670;6.184;2023-05-01T00:59:14;98875.16;;;18.91;41.45
50125;BME280;36023;48.670;6.184;2023-05-01T01:01:40;98875.16;;;18.91;41.49
50125;BME280;36023;48.670;6.184;2023-05-01T01:04:06;98869.06;;;18.91;41.48
50125;BME280;36023;48.670;6.184;2023-05-01T01:06:39;98868.19;;;18.90;41.38
50125;BME280;36023;48.670;6.184;2023-05-01T01:09:16;98868.19;;;18.90;41.35
50125;BME280;36023;48.670;6.184;2023-05-01T01:14:18;98859.47;;;18.90;41.37
50125;BME280;36023;48.670;6.184;2023-05-01T01:22:04;98856.00;;;18.89;41.21
50125;BME280;36023;48.670;6.184;2023-05-01T01:35:05;98850.84;;;18.88;41.05
50125;BME280;36023;48.670;6.184;2023-05-01T01:37:47;98851.78;;;18.87;40.96
50125;BME280;36023;48.670;6.184;2023-05-01T01:40:15;98849.16;;;18.87;40.99
50125;BME280;36023;48.670;6.184;2023-05-01T01:42:45;98849.16;;;18.87;40.97
50125;BME280;36023;48.670;6.184;2023-05-01T01:45:18;98849.16;;;18.87;40.93
50125;BME280;36023;48.670;6.184;2023-05-01T01:47:45;98850.09;;;18.86;40.95
50125;BME280;36023;48.670;6.184;2023-05-01T01:50:11;98856.19;;;18.86;40.93
50125;BME280;36023;48.670;6.184;2023-05-01T01:52:38;98854.50;;;18.85;40.86
50125;BME280;36023;48.670;6.184;2023-05-01T01:55:08;98849.25;;;18.85;40.80
50125;BME280;36023;48.670;6.184;2023-05-01T01:57:35;98844.00;;;18.85;40.83
50125;BME280;36023;48.670;6.184;2023-05-01T02:00:05;98849.25;;;18.85;40.90
50125;BME280;36023;48.670;6.184;2023-05-01T02:02:38;98839.69;;;18.84;40.85
50125;BME280;36023;48.670;6.184;2023-05-01T02:05:06;98842.31;;;18.84;40.74
50125;BME280;36023;48.670;6.184;2023-05-01T02:07:34;98835.38;;;18.83;40.80
50125;BME280;36023;48.670;6.184;2023-05-01T02:10:02;98837.06;;;18.84;40.72
50125;BME280;36023;48.670;6.184;2023-05-01T02:12:28;98831.88;;;18.83;40.69
50125;BME280;36023;48.670;6.184;2023-05-01T02:14:54;98833.66;;;18.82;40.74
50125;BME280;36023;48.670;6.184;2023-05-01T02:17:22;98827.56;;;18.82;40.72
50125;BME280;36023;48.670;6.184;2023-05-01T02:19:49;98831.03;;;18.82;40.74
50125;BME280;36023;48.670;6.184;2023-05-01T02:22:17;98831.97;;;18.81;40.64
50125;BME280;36023;48.670;6.184;2023-05-01T02:24:44;98835.44;;;18.82;40.63
50125;BME280;36023;48.670;6.184;2023-05-01T02:27:10;98831.97;;;18.81;40.65
50125;BME280;36023;48.670;6.184;2023-05-01T02:29:38;98821.50;;;18.81;40.58
50125;BME280;36023;48.670;6.184;2023-05-01T02:32:04;98827.66;;;18.80;40.60
50125;BME280;36023;48.670;6.184;2023-05-01T02:34:35;98823.34;;;18.79;40.55
50125;BME280;36023;48.670;6.184;2023-05-01T02:37:01;98822.44;;;18.80;40.52
50125;BME280;36023;48.670;6.184;2023-05-01T02:39:28;98823.34;;;18.79;40.45
50125;BME280;36023;48.670;6.184;2023-05-01T02:41:56;98816.44;;;18.78;40.50
50125;BME280;36023;48.670;6.184;2023-05-01T02:44:24;98820.75;;;18.79;40.49
50125;BME280;36023;48.670;6.184;2023-05-01T02:46:51;98815.50;;;18.79;40.43
50125;BME280;36023;48.670;6.184;2023-05-01T02:49:17;98813.81;;;18.78;40.38
50125;BME280;36023;48.670;6.184;2023-05-01T02:51:45;98810.34;;;18.78;40.48
50125;BME280;36023;48.670;6.184;2023-05-01T02:54:12;98806.03;;;18.77;40.37
50125;BME280;36023;48.670;6.184;2023-05-01T02:56:39;98805.19;;;18.76;40.47
50125;BME280;36023;48.670;6.184;2023-05-01T02:59:05;98803.41;;;18.77;40.35
50125;BME280;36023;48.670;6.184;2023-05-01T03:01:31;98806.97;;;18.76;40.40
50125;BME280;36023;48.670;6.184;2023-05-01T03:03:56;98810.44;;;18.76;40.44
50125;BME280;36023;48.670;6.184;2023-05-01T03:06:22;98806.09;;;18.75;40.30
50125;BME280;36023;48.670;6.184;2023-05-01T03:08:49;98803.47;;;18.75;40.28
50125;BME280;36023;48.670;6.184;2023-05-01T03:11:17;98800.84;;;18.75;40.40
50125;BME280;36023;48.670;6.184;2023-05-01T03:13:42;98799.09;;;18.76;40.27
50125;BME280;36023;48.670;6.184;2023-05-01T03:16:08;98795.59;;;18.75;40.42
50125;BME280;36023;48.670;6.184;2023-05-01T03:18:34;98790.44;;;18.74;40.25
50125;BME280;36023;48.670;6.184;2023-05-01T03:20:59;98796.53;;;18.74;40.24
50125;BME280;36023;48.670;6.184;2023-05-01T03:23:26;98791.38;;;18.73;40.25
50125;BME280;36023;48.670;6.184;2023-05-01T03:25:54;98795.78;;;18.72;40.23
50125;BME280;36023;48.670;6.184;2023-05-01T03:28:20;98802.72;;;18.73;40.22
50125;BME280;36023;48.670;6.184;2023-05-01T03:30:49;98791.38;;;18.73;40.18
50125;BME280;36023;48.670;6.184;2023-05-01T03:33:16;98789.69;;;18.72;40.24
50125;BME280;36023;48.670;6.184;2023-05-01T03:35:41;98789.69;;;18.72;40.28
50125;BME280;36023;48.670;6.184;2023-05-01T03:38:07;98794.09;;;18.71;40.29
50125;BME280;36023;48.670;6.184;2023-05-01T03:41:02;98794.09;;;18.71;40.30
50125;BME280;36023;48.670;6.184;2023-05-01T03:43:48;98794.09;;;18.71;40.23
50125;BME280;36023;48.670;6.184;2023-05-01T03:46:26;98788.00;;;18.71;40.29
50125;BME280;36023;48.670;6.184;2023-05-01T03:48:51;98794.94;;;18.72;40.24
50125;BME280;36023;48.670;6.184;2023-05-01T03:51:18;98784.53;;;18.70;40.11
50125;BME280;36023;48.670;6.184;2023-05-01T03:53:44;98789.78;;;18.70;40.04
50125;BME280;36023;48.670;6.184;2023-05-01T03:56:10;98784.53;;;18.70;40.27
50125;BME280;36023;48.670;6.184;2023-05-01T03:58:35;98786.31;;;18.70;40.14
50125;BME280;36023;48.670;6.184;2023-05-01T04:01:01;98782.84;;;18.69;40.03
50125;BME280;36023;48.670;6.184;2023-05-01T04:03:28;98787.16;;;18.70;40.09
50125;BME280;36023;48.670;6.184;2023-05-01T04:05:54;98786.31;;;18.70;40.13
50125;BME280;36023;48.670;6.184;2023-05-01T04:08:20;98792.41;;;18.70;40.04
50125;BME280;36023;48.670;6.184;2023-05-01T04:10:46;98788.09;;;18.69;40.11
50125;BME280;36023;48.670;6.184;2023-05-01T04:13:12;98790.72;;;18.69;40.03
50125;BME280;36023;48.670;6.184;2023-05-01T04:15:37;98793.34;;;18.69;40.11
50125;BME280;36023;48.670;6.184;2023-05-01T04:18:03;98789.03;;;18.68;40.07
50125;BME280;36023;48.670;6.184;2023-05-01T04:20:29;98794.28;;;18.68;40.15
50125;BME280;36023;48.670;6.184;2023-05-01T04:22:54;98798.59;;;18.69;40.19
50125;BME280;36023;48.670;6.184;2023-05-01T04:25:20;98799.53;;;18.68;40.05
50125;BME280;36023;48.670;6.184;2023-05-01T04:27:48;98795.97;;;18.69;40.14
50125;BME280;36023;48.670;6.184;2023-05-01T04:30:16;98801.22;;;18.69;40.10
50125;BME280;36023;48.670;6.184;2023-05-01T04:32:42;98804.78;;;18.68;40.14
50125;BME280;36023;48.670;6.184;2023-05-01T04:35:09;98803.06;;;18.67;40.08
50125;BME280;36023;48.670;6.184;2023-05-01T04:37:38;98806.63;;;18.66;40.16
50125;BME280;36023;48.670;6.184;2023-05-01T04:40:04;98803.06;;;18.67;40.21
50125;BME280;36023;48.670;6.184;2023-05-01T04:42:30;98810.94;;;18.67;40.12
50125;BME280;36023;48.670;6.184;2023-05-01T04:44:57;98813.56;;;18.67;40.05
50125;BME280;36023;48.670;6.184;2023-05-01T04:47:26;98808.31;;;18.67;40.08
50125;BME280;36023;48.670;6.184;2023-05-01T04:49:52;98811.88;;;18.66;40.08
50125;BME280;36023;48.670;6.184;2023-05-01T04:52:18;98815.41;;;18.65;40.06
50125;BME280;36023;48.670;6.184;2023-05-01T04:54:52;98813.66;;;18.65;40.08
50125;BME280;36023;48.670;6.184;2023-05-01T04:57:21;98824.16;;;18.65;40.16
50125;BME280;36023;48.670;6.184;2023-05-01T04:59:48;98819.81;;;18.64;40.23
50125;BME280;36023;48.670;6.184;2023-05-01T05:02:14;98819.81;;;18.64;40.14
50125;BME280;36023;48.670;6.184;2023-05-01T05:04:40;98825.91;;;18.65;40.15
50125;BME280;36023;48.670;6.184;2023-05-01T05:07:05;98812.78;;;18.65;40.15
50125;BME280;36023;48.670;6.184;2023-05-01T05:09:54;98818.97;;;18.64;40.19
50125;BME280;36023;48.670;6.184;2023-05-01T05:12:22;98818.13;;;18.63;40.15
50125;BME280;36023;48.670;6.184;2023-05-01T05:14:47;98824.22;;;18.64;40.13
50125;BME280;36023;48.670;6.184;2023-05-01T05:17:15;98822.53;;;18.63;39.97
50125;BME280;36023;48.670;6.184;2023-05-01T05:19:40;98816.44;;;18.62;40.20
50125;BME280;36023;48.670;6.184;2023-05-01T05:22:06;98819.06;;;18.62;40.20
50125;BME280;36023;48.670;6.184;2023-05-01T05:24:41;98824.31;;;18.62;40.17
50125;BME280;36023;48.670;6.184;2023-05-01T05:27:08;98825.22;;;18.61;40.27
50125;BME280;36023;48.670;6.184;2023-05-01T05:29:34;98823.47;;;18.62;40.06
50125;BME280;36023;48.670;6.184;2023-05-01T05:32:02;98836.56;;;18.62;40.16
50125;BME280;36023;48.670;6.184;2023-05-01T05:34:29;98835.72;;;18.61;40.16
50125;BME280;36023;48.670;6.184;2023-05-01T05:36:54;98838.34;;;18.61;40.17
50125;BME280;36023;48.670;6.184;2023-05-01T05:39:23;98828.78;;;18.60;40.12
50125;BME280;36023;48.670;6.184;2023-05-01T05:41:49;98828.78;;;18.60;40.24
50125;BME280;36023;48.670;6.184;2023-05-01T05:44:18;98823.56;;;18.60;40.22
50125;BME280;36023;48.670;6.184;2023-05-01T05:46:44;98827.00;;;18.61;40.20
50125;BME280;36023;48.670;6.184;2023-05-01T05:49:13;98823.59;;;18.59;40.12
50125;BME280;36023;48.670;6.184;2023-05-01T05:51:39;98827.94;;;18.60;40.29
50125;BME280;36023;48.670;6.184;2023-05-01T05:54:05;98820.09;;;18.60;40.24
50125;BME280;36023;48.670;6.184;2023-05-01T05:56:34;98833.19;;;18.60;40.25
50125;BME280;36023;48.670;6.184;2023-05-01T05:59:01;98830.56;;;18.60;40.30
50125;BME280;36023;48.670;6.184;2023-05-01T06:01:29;98833.19;;;18.60;40.37
50125;BME280;36023;48.670;6.184;2023-05-01T06:03:54;98833.19;;;18.60;40.18
50125;BME280;36023;48.670;6.184;2023-05-01T06:06:23;98834.94;;;18.59;40.30
50125;BME280;36023;48.670;6.184;2023-05-01T06:08:50;98838.44;;;18.60;40.43
50125;BME280;36023;48.670;6.184;2023-05-01T06:11:16;98834.94;;;18.59;40.41
50125;BME280;36023;48.670;6.184;2023-05-01T06:13:42;98827.94;;;18.60;40.41
50125;BME280;36023;48.670;6.184;2023-05-01T06:16:07;98836.72;;;18.59;40.43
50125;BME280;36023;48.670;6.184;2023-05-01T06:18:33;98831.47;;;18.59;40.46
50125;BME280;36023;48.670;6.184;2023-05-01T06:20:59;98834.09;;;18.59;40.51
50125;BME280;36023;48.670;6.184;2023-05-01T06:23:24;98830.63;;;18.58;40.52
50125;BME280;36023;48.670;6.184;2023-05-01T06:26:13;98825.38;;;18.58;40.58
50125;BME280;36023;48.670;6.184;2023-05-01T06:28:42;98829.69;;;18.59;40.51
50125;BME280;36023;48.670;6.184;2023-05-01T06:31:08;98832.41;;;18.58;40.54
50125;BME280;36023;48.670;6.184;2023-05-01T06:33:38;98831.47;;;18.59;40.58
50125;BME280;36023;48.670;6.184;2023-05-01T06:36:18;98833.25;;;18.58;40.67
50125;BME280;36023;48.670;6.184;2023-05-01T06:38:47;98834.09;;;18.59;40.62
50125;BME280;36023;48.670;6.184;2023-05-01T06:41:14;98829.78;;;18.58;40.83
50125;BME280;36023;48.670;6.184;2023-05-01T06:43:41;98830.63;;;18.58;40.74
50125;BME280;36023;48.670;6.184;2023-05-01T06:46:08;98829.78;;;18.58;40.96
50125;BME280;36023;48.670;6.184;2023-05-01T06:48:34;98830.63;;;18.58;40.83
50125;BME280;36023;48.670;6.184;2023-05-01T06:50:59;98835.03;;;18.58;40.73
50125;BME280;36023;48.670;6.184;2023-05-01T06:53:26;98828.94;;;18.57;40.83
50125;BME280;36023;48.670;6.184;2023-05-01T06:55:52;98834.19;;;18.57;40.79
50125;BME280;36023;48.670;6.184;2023-05-01T06:58:18;98834.19;;;18.57;40.85
50125;BME280;36023;48.670;6.184;2023-05-01T07:00:45;98833.34;;;18.57;40.87
50125;BME280;36023;48.670;6.184;2023-05-01T07:03:10;98832.41;;;18.58;40.90
50125;BME280;36023;48.670;6.184;2023-05-01T07:05:36;98837.75;;;18.56;40.90
50125;BME280;36023;48.670;6.184;2023-05-01T07:08:01;98835.97;;;18.57;40.84
50125;BME280;36023;48.670;6.184;2023-05-01T07:10:28;98843.94;;;18.55;40.89
50125;BME280;36023;48.670;6.184;2023-05-01T07:12:55;98836.06;;;18.55;40.81
50125;BME280;36023;48.670;6.184;2023-05-01T07:15:20;98841.31;;;18.55;40.73
50125;BME280;36023;48.670;6.184;2023-05-01T07:17:46;98845.72;;;18.55;40.76
50125;BME280;36023;48.670;6.184;2023-05-01T07:20:12;98845.72;;;18.55;40.78
50125;BME280;36023;48.670;6.184;2023-05-01T07:22:38;98844.03;;;18.54;40.86
50125;BME280;36023;48.670;6.184;2023-05-01T07:25:05;98847.59;;;18.53;40.85
50125;BME280;36023;48.670;6.184;2023-05-01T07:27:30;98847.59;;;18.53;40.80
50125;BME280;36023;48.670;6.184;2023-05-01T07:29:57;98843.19;;;18.53;40.90
50125;BME280;36023;48.670;6.184;2023-05-01T07:32:25;98841.50;;;18.52;40.82
50125;BME280;36023;48.670;6.184;2023-05-01T07:34:50;98844.97;;;18.53;40.89
50125;BME280;36023;48.670;6.184;2023-05-01T07:37:16;98844.13;;;18.52;40.92
50125;BME280;36023;48.670;6.184;2023-05-01T07:39:43;98841.50;;;18.52;40.87
50125;BME280;36023;48.670;6.184;2023-05-01T07:42:08;98837.16;;;18.51;40.93
50125;BME280;36023;48.670;6.184;2023-05-01T07:44:34;98844.13;;;18.52;40.97
50125;BME280;36023;48.670;6.184;2023-05-01T07:47:03;98839.72;;;18.53;41.02
50125;BME280;36023;48.670;6.184;2023-05-01T07:49:33;98840.63;;;18.52;40.96
50125;BME280;36023;48.670;6.184;2023-05-01T07:52:00;98838.94;;;18.51;40.96
50125;BME280;36023;48.670;6.184;2023-05-01T07:54:27;98839.78;;;18.51;41.07
50125;BME280;36023;48.670;6.184;2023-05-01T07:56:54;98846.75;;;18.52;41.07
50125;BME280;36023;48.670;6.184;2023-05-01T07:59:21;98839.72;;;18.53;41.20
50125;BME280;36023;48.670;6.184;2023-05-01T08:01:46;98843.25;;;18.52;41.28
50125;BME280;36023;48.670;6.184;2023-05-01T08:04:12;98840.63;;;18.52;41.30
50125;BME280;36023;48.670;6.184;2023-05-01T08:06:38;98843.19;;;18.53;41.28
50125;BME280;36023;48.670;6.184;2023-05-01T08:09:06;98850.22;;;18.53;41.20
50125;BME280;36023;48.670;6.184;2023-05-01T08:11:32;98847.59;;;18.53;41.48
50125;BME280;36023;48.670;6.184;2023-05-01T08:13:57;98850.22;;;18.53;41.26
50125;BME280;36023;48.670;6.184;2023-05-01T08:16:23;98859.75;;;18.54;41.23
50125;BME280;36023;48.670;6.184;2023-05-01T08:18:49;98852.84;;;18.53;41.34
50125;BME280;36023;48.670;6.184;2023-05-01T08:21:14;98847.59;;;18.53;41.28
50125;BME280;36023;48.670;6.184;2023-05-01T08:23:42;98843.25;;;18.52;41.35
50125;BME280;36023;48.670;6.184;2023-05-01T08:26:07;98849.38;;;18.52;41.34
50125;BME280;36023;48.670;6.184;2023-05-01T08:28:34;98836.91;;;18.56;42.07
50125;BME280;36023;48.670;6.184;2023-05-01T08:31:00;98846.47;;;18.57;41.40
50125;BME280;36023;48.670;6.184;2023-05-01T08:33:27;98842.25;;;18.54;41.41
50125;BME280;36023;48.670;6.184;2023-05-01T08:35:53;98845.81;;;18.53;41.47
50125;BME280;36023;48.670;6.184;2023-05-01T08:38:18;98849.38;;;18.52;41.45
50125;BME280;36023;48.670;6.184;2023-05-01T08:40:46;98845.88;;;18.52;41.42
50125;BME280;36023;48.670;6.184;2023-05-01T08:43:15;98845.88;;;18.52;41.51
50125;BME280;36023;48.670;6.184;2023-05-01T08:45:42;98845.88;;;18.52;41.56
50125;BME280;36023;48.670;6.184;2023-05-01T08:48:08;98838.09;;;18.50;41.52
50125;BME280;36023;48.670;6.184;2023-05-01T08:50:35;98838.00;;;18.52;41.45
50125;BME280;36023;48.670;6.184;2023-05-01T08:53:01;98838.94;;;18.51;41.55
50125;BME280;36023;48.670;6.184;2023-05-01T08:55:29;98826.75;;;18.50;41.49
50125;BME280;36023;48.670;6.184;2023-05-01T08:57:55;98839.78;;;18.51;41.62
50125;BME280;36023;48.670;6.184;2023-05-01T09:00:22;98838.94;;;18.51;41.65
50125;BME280;36023;48.670;6.184;2023-05-01T09:02:50;98837.25;;;18.50;41.63
50125;BME280;36023;48.670;6.184;2023-05-01T09:05:18;98839.03;;;18.49;41.69
50125;BME280;36023;48.670;6.184;2023-05-01T09:07:44;98835.47;;;18.50;41.59
50125;BME280;36023;48.670;6.184;2023-05-01T09:10:11;98839.88;;;18.50;41.63
50125;BME280;36023;48.670;6.184;2023-05-01T09:12:39;98841.66;;;18.49;41.67
50125;BME280;36023;48.670;6.184;2023-05-01T09:15:06;98841.56;;;18.51;41.67
50125;BME280;36023;48.670;6.184;2023-05-01T09:17:31;98841.56;;;18.51;41.76
50125;BME280;36023;48.670;6.184;2023-05-01T09:19:58;98840.81;;;18.49;41.64
50125;BME280;36023;48.670;6.184;2023-05-01T09:22:28;98843.44;;;18.49;41.79
50125;BME280;36023;48.670;6.184;2023-05-01T09:24:54;98848.66;;;18.49;41.83
50125;BME280;36023;48.670;6.184;2023-05-01T09:27:22;98844.38;;;18.48;41.86
50125;BME280;36023;48.670;6.184;2023-05-01T09:29:48;98847.81;;;18.48;41.93
50125;BME280;36023;48.670;6.184;2023-05-01T09:32:18;98841.75;;;18.48;41.79
50125;BME280;36023;48.670;6.184;2023-05-01T09:34:48;98852.97;;;18.50;41.97
50125;BME280;36023;48.670;6.184;2023-05-01T09:37:35;98846.06;;;18.49;41.97
50125;BME280;36023;48.670;6.184;2023-05-01T09:40:03;98853.06;;;18.48;41.91
50125;BME280;36023;48.670;6.184;2023-05-01T09:42:29;98854.84;;;18.48;42.07
50125;BME280;36023;48.670;6.184;2023-05-01T09:44:59;98860.94;;;18.48;42.18
50125;BME280;36023;48.670;6.184;2023-05-01T09:47:25;98853.06;;;18.48;42.26
50125;BME280;36023;48.670;6.184;2023-05-01T09:49:54;98852.13;;;18.49;42.26
50125;BME280;36023;48.670;6.184;2023-05-01T09:52:20;98849.53;;;18.49;42.35
50125;BME280;36023;48.670;6.184;2023-05-01T09:54:46;98846.06;;;18.49;42.34
50125;BME280;36023;48.670;6.184;2023-05-01T09:57:12;98843.44;;;18.49;42.53
50125;BME280;36023;48.670;6.184;2023-05-01T10:06:48;98842.50;;;18.50;42.71
50125;BME280;36023;48.670;6.184;2023-05-01T10:09:13;98840.72;;;18.50;42.81
50125;BME280;36023;48.670;6.184;2023-05-01T10:11:52;98848.59;;;18.50;42.97
50125;BME280;36023;48.670;6.184;2023-05-01T10:14:18;98856.34;;;18.52;43.04
50125;BME280;36023;48.670;6.184;2023-05-01T10:16:44;98851.09;;;18.52;43.04
50125;BME280;36023;48.670;6.184;2023-05-01T10:19:11;98843.19;;;18.53;43.19
50125;BME280;36023;48.670;6.184;2023-05-01T10:21:36;98848.44;;;18.53;43.36
50125;BME280;36023;48.670;6.184;2023-05-01T10:24:05;98852.75;;;18.54;43.36
50125;BME280;36023;48.670;6.184;2023-05-01T10:26:32;98851.91;;;18.54;43.40
50125;BME280;36023;48.670;6.184;2023-05-01T10:28:59;98858.81;;;18.55;43.87
50125;BME280;36023;48.670;6.184;2023-05-01T10:31:25;98848.16;;;18.58;44.59
50125;BME280;36023;48.670;6.184;2023-05-01T10:33:53;98848.75;;;18.63;44.95
50125;BME280;36023;48.670;6.184;2023-05-01T10:36:41;98852.91;;;18.67;45.40
50125;BME280;36023;48.670;6.184;2023-05-01T10:39:05;98847.50;;;18.70;45.88
50125;BME280;36023;48.670;6.184;2023-05-01T10:44:19;98850.03;;;18.72;46.42
50125;BME280;36023;48.670;6.184;2023-05-01T10:46:45;98863.06;;;18.73;46.68
50125;BME280;36023;48.670;6.184;2023-05-01T10:49:11;98853.50;;;18.72;46.80
50125;BME280;36023;48.670;6.184;2023-05-01T10:51:37;98853.50;;;18.72;47.00
50125;BME280;36023;48.670;6.184;2023-05-01T10:54:26;98862.31;;;18.71;47.16
50125;BME280;36023;48.670;6.184;2023-05-01T10:56:53;98875.44;;;18.71;47.17
50125;BME280;36023;48.670;6.184;2023-05-01T10:59:18;98861.47;;;18.71;47.38
50125;BME280;36023;48.670;6.184;2023-05-01T11:01:45;98867.66;;;18.70;47.48
50125;BME280;36023;48.670;6.184;2023-05-01T11:09:35;98853.69;;;18.69;47.57
50125;BME280;36023;48.670;6.184;2023-05-01T11:12:02;98852.00;;;18.68;47.73
50125;BME280;36023;48.670;6.184;2023-05-01T11:14:42;98852.84;;;18.69;47.61
50125;BME280;36023;48.670;6.184;2023-05-01T11:17:15;98851.06;;;18.69;47.71
50125;BME280;36023;48.670;6.184;2023-05-01T11:19:59;98846.75;;;18.68;47.78
50125;BME280;36023;48.670;6.184;2023-05-01T11:22:25;98840.63;;;18.68;47.87
50125;BME280;36023;48.670;6.184;2023-05-01T11:24:50;98851.13;;;18.68;47.77
50125;BME280;36023;48.670;6.184;2023-05-01T11:27:16;98845.03;;;18.67;47.75
50125;BME280;36023;48.670;6.184;2023-05-01T11:29:43;98845.88;;;18.68;47.78
50125;BME280;36023;48.670;6.184;2023-05-01T11:32:14;98839.78;;;18.67;47.88
50125;BME280;36023;48.670;6.184;2023-05-01T11:34:39;98840.63;;;18.68;47.73
50125;BME280;36023;48.670;6.184;2023-05-01T11:37:05;98837.16;;;18.67;47.86
50125;BME280;36023;48.670;6.184;2023-05-01T11:39:30;98833.63;;;18.68;48.00
50125;BME280;36023;48.670;6.184;2023-05-01T11:42:06;98842.34;;;18.69;47.80
50125;BME280;36023;48.670;6.184;2023-05-01T11:44:34;98841.50;;;18.68;47.91
50125;BME280;36023;48.670;6.184;2023-05-01T11:46:59;98837.09;;;18.69;47.95
50125;BME280;36023;48.670;6.184;2023-05-01T11:49:26;98831.00;;;18.68;47.95
50125;BME280;36023;48.670;6.184;2023-05-01T11:51:55;98833.63;;;18.68;47.94
50125;BME280;36023;48.670;6.184;2023-05-01T11:54:21;98826.63;;;18.69;48.11
50125;BME280;36023;48.670;6.184;2023-05-01T11:56:58;98831.84;;;18.69;48.13
50125;BME280;36023;48.670;6.184;2023-05-01T11:59:25;98831.84;;;18.69;48.09
50125;BME280;36023;48.670;6.184;2023-05-01T12:01:51;98837.94;;;18.69;48.13
50125;BME280;36023;48.670;6.184;2023-05-01T12:04:25;98834.47;;;18.69;48.25
50125;BME280;36023;48.670;6.184;2023-05-01T12:06:53;98842.25;;;18.70;48.14
50125;BME280;36023;48.670;6.184;2023-05-01T12:09:20;98842.25;;;18.70;48.32
50125;BME280;36023;48.670;6.184;2023-05-01T12:11:46;98830.91;;;18.70;48.27
50125;BME280;36023;48.670;6.184;2023-05-01T12:14:13;98829.13;;;18.70;48.31
50125;BME280;36023;48.670;6.184;2023-05-01T12:16:39;98827.34;;;18.71;48.26
50125;BME280;36023;48.670;6.184;2023-05-01T12:19:05;98829.97;;;18.71;48.27
50125;BME280;36023;48.670;6.184;2023-05-01T12:21:33;98835.13;;;18.72;48.22
50125;BME280;36023;48.670;6.184;2023-05-01T12:24:15;98835.13;;;18.72;48.25
50125;BME280;36023;48.670;6.184;2023-05-01T12:26:41;98839.44;;;18.73;48.29
50125;BME280;36023;48.670;6.184;2023-05-01T12:29:07;98837.66;;;18.74;48.31
50125;BME280;36023;48.670;6.184;2023-05-01T12:31:34;98833.25;;;18.74;48.35
50125;BME280;36023;48.670;6.184;2023-05-01T12:34:00;98841.06;;;18.76;48.27
50125;BME280;36023;48.670;6.184;2023-05-01T12:36:26;98833.19;;;18.76;48.29
50125;BME280;36023;48.670;6.184;2023-05-01T12:39:08;98841.81;;;18.78;48.33
50125;BME280;36023;48.670;6.184;2023-05-01T12:44:01;98841.72;;;18.79;48.35
50125;BME280;36023;48.670;6.184;2023-05-01T12:46:27;98837.22;;;18.81;48.31
50125;BME280;36023;48.670;6.184;2023-05-01T12:48:52;98840.63;;;18.83;48.35
50125;BME280;36023;48.670;6.184;2023-05-01T12:51:19;98842.31;;;18.84;48.43
50125;BME280;36023;48.670;6.184;2023-05-01T12:53:44;98844.00;;;18.85;48.56
50125;BME280;36023;48.670;6.184;2023-05-01T12:56:21;98846.63;;;18.85;48.63
50125;BME280;36023;48.670;6.184;2023-05-01T12:58:49;98856.19;;;18.86;48.51
50125;BME280;36023;48.670;6.184;2023-05-01T13:01:25;98868.47;;;18.86;48.58
50125;BME280;36023;48.670;6.184;2023-05-01T13:03:54;98862.28;;;18.87;48.58
50125;BME280;36023;48.670;6.184;2023-05-01T13:06:30;98863.13;;;18.87;48.61
50125;BME280;36023;48.670;6.184;2023-05-01T13:09:04;98864.81;;;18.88;48.62
50125;BME280;36023;48.670;6.184;2023-05-01T13:11:31;98875.16;;;18.91;48.74
50125;BME280;36023;48.670;6.184;2023-05-01T13:13:57;98869.06;;;18.91;48.76
50125;BME280;36023;48.670;6.184;2023-05-01T13:16:30;98867.19;;;18.93;48.84
50125;BME280;36023;48.670;6.184;2023-05-01T13:18:59;98868.03;;;18.93;48.86
50125;BME280;36023;48.670;6.184;2023-05-01T13:21:25;98867.09;;;18.95;48.93
50125;BME280;36023;48.670;6.184;2023-05-01T13:23:57;98861.75;;;18.96;48.95
50125;BME280;36023;48.670;6.184;2023-05-01T13:26:26;98856.50;;;18.96;49.06
50125;BME280;36023;48.670;6.184;2023-05-01T13:29:00;98858.97;;;18.99;49.23
50125;BME280;36023;48.670;6.184;2023-05-01T13:31:26;98862.34;;;19.01;49.40
50125;BME280;36023;48.670;6.184;2023-05-01T13:33:53;98864.97;;;19.01;49.47
50125;BME280;36023;48.670;6.184;2023-05-01T13:36:20;98865.81;;;19.02;49.51
50125;BME280;36023;48.670;6.184;2023-05-01T13:38:46;98865.81;;;19.02;49.70